Time;durP1;ratioP1;P1;durP2;ratioP2;P2;SDS_P1;SDS_P2;PMS_P1;PMS_P2;Temp;Humidity;BMP_temperature;BMP_pressure;BME280_temperature;BME280_humidity;BME280_pressure;Samples;Min_cycle;Max_cycle;Signal;HPM_P1;HPM_P2
2021/04/22 00:00:00;;;;;;;7.13;5.80;;;;;;;8.90;56.88;96505.50;5073610;28;20037;-77
2021/04/22 00:02:28;;;;;;;6.32;5.72;;;;;;;8.89;56.96;96512.53;5073630;28;20052;-77
2021/04/22 00:04:54;;;;;;;6.13;5.63;;;;;;;8.91;56.98;96515.75;5073292;28;20036;-77
2021/04/22 00:07:20;;;;;;;7.85;5.95;;;;;;;8.89;57.02;96511.75;5073379;28;20043;-77
2021/04/22 00:09:47;;;;;;;6.55;5.93;;;;;;;8.86;57.13;96507.72;5073125;28;20071;-77
2021/04/22 00:12:13;;;;;;;5.78;5.28;;;;;;;8.79;57.14;96506.94;5073449;28;20040;-77
2021/04/22 00:14:39;;;;;;;6.15;5.65;;;;;;;8.76;57.24;96503.91;5073271;28;20032;-77
2021/04/22 00:17:08;;;;;;;5.97;5.38;;;;;;;8.71;57.46;96510.59;5073437;28;20397;-77
2021/04/22 00:19:35;;;;;;;6.32;5.28;;;;;;;8.66;57.57;96499.13;5072997;28;20064;-77
2021/04/22 00:22:02;;;;;;;6.90;6.25;;;;;;;8.62;57.73;96497.91;5071978;28;20037;-77
2021/04/22 00:24:28;;;;;;;10.50;5.82;;;;;;;8.59;57.97;96504.38;5071942;28;20480;-77
2021/04/22 00:27:04;;;;;;;6.05;5.45;;;;;;;8.60;57.98;96503.34;5073331;28;20389;-77
2021/04/22 00:29:30;;;;;;;6.72;5.30;;;;;;;8.62;58.14;96503.16;5072894;28;20408;-77
2021/04/22 00:32:01;;;;;;;5.93;5.43;;;;;;;8.64;58.13;96501.94;5057359;28;20390;-77
2021/04/22 00:34:27;;;;;;;6.18;5.60;;;;;;;8.66;58.25;96499.91;5072907;28;20056;-77
2021/04/22 00:36:53;;;;;;;6.13;5.50;;;;;;;8.67;58.35;96504.16;5072280;28;20040;-77
2021/04/22 00:39:19;;;;;;;7.03;5.65;;;;;;;8.67;58.28;96501.53;5071667;28;20028;-77
2021/04/22 00:41:46;;;;;;;5.47;4.97;;;;;;;8.68;58.33;96502.34;5073066;28;20043;-77
2021/04/22 00:44:12;;;;;;;6.25;5.43;;;;;;;8.67;58.46;96505.94;5073003;28;20500;-77
2021/04/22 00:46:39;;;;;;;6.07;5.47;;;;;;;8.63;58.55;96500.34;5073702;28;20047;-77
2021/04/22 00:49:05;;;;;;;6.97;6.38;;;;;;;8.62;58.58;96500.53;5077071;28;20028;-77
2021/04/22 00:51:32;;;;;;;6.05;5.28;;;;;;;8.59;58.75;96503.53;5077051;28;20040;-77
2021/04/22 00:53:58;;;;;;;6.68;6.07;;;;;;;8.59;58.71;96499.13;5077218;28;20051;-77
2021/04/22 00:56:24;;;;;;;7.78;5.90;;;;;;;8.56;58.83;96498.72;5075882;28;20048;-77
2021/04/22 00:58:51;;;;;;;6.50;5.78;;;;;;;8.53;58.81;96500.75;5076958;28;20032;-77
2021/04/22 01:01:17;;;;;;;6.60;6.00;;;;;;;8.52;58.97;96506.16;5076575;28;20202;-77
2021/04/22 01:03:43;;;;;;;7.65;6.60;;;;;;;8.52;59.02;96503.56;5076875;28;20045;-77
2021/04/22 01:06:11;;;;;;;8.20;7.38;;;;;;;8.51;59.09;96501.97;5076783;28;20048;-77
2021/04/22 01:08:37;;;;;;;8.20;7.47;;;;;;;8.49;59.33;96501.38;5076849;28;20495;-77
2021/04/22 01:11:06;;;;;;;7.90;7.10;;;;;;;8.48;59.25;96504.97;5075463;28;20044;-77
2021/04/22 01:13:32;;;;;;;9.52;6.80;;;;;;;8.46;59.32;96502.56;5076672;28;20036;-77
2021/04/22 01:15:58;;;;;;;7.60;6.90;;;;;;;8.45;59.38;96508.00;5075285;28;20037;-77
2021/04/22 01:18:25;;;;;;;8.13;7.32;;;;;;;8.43;59.50;96516.03;5076804;28;20036;-77
2021/04/22 01:20:52;;;;;;;7.75;7.05;;;;;;;8.44;59.65;96514.22;5076528;28;20036;-77
2021/04/22 01:23:18;;;;;;;8.05;7.35;;;;;;;8.43;59.58;96521.25;5076868;28;20037;-77
2021/04/22 01:25:51;;;;;;;10.35;8.40;;;;;;;8.39;60.21;96529.69;5076249;28;20040;-77
2021/04/22 01:28:20;;;;;;;9.57;8.40;;;;;;;8.33;59.89;96528.66;5076403;28;20400;-77
2021/04/22 01:30:52;;;;;;;9.57;8.70;;;;;;;8.31;60.03;96534.09;5074797;28;20055;-77
2021/04/22 01:33:28;;;;;;;8.25;7.45;;;;;;;8.28;60.61;96536.31;5076053;28;20057;-76
2021/04/22 01:35:58;;;;;;;8.10;7.40;;;;;;;8.23;60.35;96531.69;5076092;28;20041;-78
2021/04/22 01:38:28;;;;;;;8.23;7.47;;;;;;;8.21;60.50;96541.53;5076335;28;20028;-77
2021/04/22 01:40:56;;;;;;;8.25;7.45;;;;;;;8.22;60.31;96540.53;5076048;28;20040;-78
2021/04/22 01:43:22;;;;;;;7.57;6.78;;;;;;;8.24;60.42;96543.75;5062758;28;20051;-77
2021/04/22 01:45:48;;;;;;;7.35;6.57;;;;;;;8.24;60.47;96530.69;5076079;28;20047;-77
2021/04/22 01:48:15;;;;;;;7.70;6.95;;;;;;;8.21;60.46;96538.94;5074962;28;20024;-77
2021/04/22 01:50:42;;;;;;;8.15;7.10;;;;;;;8.17;60.54;96532.50;5075863;28;20052;-77
2021/04/22 01:53:08;;;;;;;8.65;7.80;;;;;;;8.16;60.65;96532.69;5076330;28;20051;-77
2021/04/22 01:55:39;;;;;;;7.72;6.95;;;;;;;8.14;61.02;96531.06;5075568;28;20045;-77
2021/04/22 01:58:08;;;;;;;8.70;7.90;;;;;;;8.13;61.19;96531.28;5065586;28;20036;-77
2021/04/22 02:00:36;;;;;;;9.52;8.63;;;;;;;8.13;61.31;96531.28;5075480;28;20055;-77
2021/04/22 02:03:04;;;;;;;9.05;8.25;;;;;;;8.12;61.34;96524.44;5075812;28;20039;-77
2021/04/22 02:05:30;;;;;;;9.18;8.35;;;;;;;8.14;61.52;96527.66;5075633;28;20051;-77
2021/04/22 02:07:56;;;;;;;11.75;9.48;;;;;;;8.16;61.53;96517.81;5074450;28;20050;-77
2021/04/22 02:10:22;;;;;;;10.70;9.80;;;;;;;8.15;61.72;96534.50;5074552;28;20032;-77
2021/04/22 02:12:50;;;;;;;10.07;9.13;;;;;;;8.16;61.96;96524.84;5075242;28;20515;-77
2021/04/22 02:15:21;;;;;;;9.82;8.88;;;;;;;8.18;62.41;96513.19;5075634;28;20473;-77
2021/04/22 02:17:48;;;;;;;10.43;9.43;;;;;;;8.24;62.36;96520.22;5074362;28;20290;-77
2021/04/22 02:20:15;;;;;;;9.52;8.63;;;;;;;8.28;62.28;96518.03;5075069;28;20469;-77
2021/04/22 02:22:42;;;;;;;9.88;8.98;;;;;;;8.31;62.51;96515.00;5074025;28;20048;-77
2021/04/22 02:25:12;;;;;;;9.63;8.73;;;;;;;8.33;62.79;96524.25;5074978;28;20045;-78
2021/04/22 02:27:39;;;;;;;10.35;9.27;;;;;;;8.34;62.82;96527.69;5074976;28;20417;-77
2021/04/22 02:30:08;;;;;;;10.40;8.82;;;;;;;8.37;63.23;96542.13;5074575;28;20409;-77
2021/04/22 02:32:35;;;;;;;9.82;8.93;;;;;;;8.38;62.98;96548.97;5075196;28;20049;-77
2021/04/22 02:35:02;;;;;;;10.05;9.15;;;;;;;8.43;63.17;96551.81;5075222;28;20037;-77
2021/04/22 02:37:29;;;;;;;9.98;8.95;;;;;;;8.45;63.14;96549.81;5075317;28;20028;-77
2021/04/22 02:39:56;;;;;;;10.40;9.48;;;;;;;8.48;63.25;96559.84;5074725;28;20039;-77
2021/04/22 02:42:23;;;;;;;10.15;9.15;;;;;;;8.44;63.15;96549.00;5075512;28;20052;-77
2021/04/22 02:44:49;;;;;;;10.02;9.02;;;;;;;8.36;63.09;96556.19;5074921;28;20040;-77
2021/04/22 02:47:15;;;;;;;9.95;9.05;;;;;;;8.33;63.38;96555.59;5074924;28;20052;-77
2021/04/22 02:49:41;;;;;;;10.88;9.93;;;;;;;8.35;63.65;96552.78;5074689;28;20041;-77
2021/04/22 02:52:08;;;;;;;9.93;9.02;;;;;;;8.29;63.58;96556.19;5074030;28;20047;-77
2021/04/22 02:54:35;;;;;;;9.02;8.23;;;;;;;8.21;63.54;96569.44;5075044;28;20047;-78
2021/04/22 02:57:02;;;;;;;10.07;9.18;;;;;;;8.15;63.64;96565.84;5074165;28;20535;-77
2021/04/22 02:59:28;;;;;;;9.10;7.50;;;;;;;8.04;63.61;96574.25;5074317;28;20040;-77
2021/04/22 03:01:54;;;;;;;7.88;7.07;;;;;;;7.96;63.80;96570.03;5074023;28;20057;-77
2021/04/22 03:04:20;;;;;;;7.97;7.22;;;;;;;7.91;63.80;96572.41;5074860;28;20035;-77
2021/04/22 03:06:59;;;;;;;11.45;10.45;;;;;;;7.92;64.06;96571.44;5074456;28;20036;-77
2021/04/22 03:09:26;;;;;;;11.48;10.48;;;;;;;7.95;64.10;96576.25;5074643;28;20396;-77
2021/04/22 03:11:53;;;;;;;14.48;13.18;;;;;;;7.98;64.15;96573.25;5073443;28;20068;-77
2021/04/22 03:14:19;;;;;;;12.48;11.27;;;;;;;8.02;64.34;96571.88;5074001;28;20472;-78
2021/04/22 03:16:45;;;;;;;10.23;9.30;;;;;;;8.04;64.40;96572.47;5073707;28;20048;-77
2021/04/22 03:19:12;;;;;;;9.07;8.18;;;;;;;8.05;64.41;96565.44;5072972;28;20044;-78
2021/04/22 03:21:38;;;;;;;9.60;8.55;;;;;;;8.06;64.40;96575.69;5074139;28;20040;-77
2021/04/22 03:24:06;;;;;;;9.75;8.75;;;;;;;8.07;64.66;96569.44;5074319;28;20036;-77
2021/04/22 03:26:33;;;;;;;9.68;8.77;;;;;;;8.10;64.87;96573.47;5074383;28;20040;-77
2021/04/22 03:29:02;;;;;;;9.25;8.45;;;;;;;8.10;64.70;96568.25;5073904;28;20041;-77
2021/04/22 03:31:30;;;;;;;9.68;8.77;;;;;;;8.10;64.88;96581.28;5073446;28;20048;-77
2021/04/22 03:33:58;;;;;;;9.82;8.93;;;;;;;8.09;64.96;96579.69;5074513;28;20036;-77
2021/04/22 03:36:26;;;;;;;11.73;10.52;;;;;;;8.08;65.22;96583.31;5073818;28;20033;-77
2021/04/22 03:38:54;;;;;;;12.27;11.18;;;;;;;8.04;65.27;96584.69;5073983;28;20072;-77
2021/04/22 03:41:22;;;;;;;11.57;10.48;;;;;;;8.04;65.44;96589.94;5073786;28;20032;-77
2021/04/22 03:43:50;;;;;;;11.82;10.73;;;;;;;8.04;65.63;96592.53;5073719;28;20056;-77
2021/04/22 03:46:18;;;;;;;12.65;11.50;;;;;;;8.03;65.73;96591.75;5073500;28;20036;-77
2021/04/22 03:48:45;;;;;;;13.38;12.07;;;;;;;8.05;65.85;96596.78;5073834;28;20051;-77
2021/04/22 03:51:13;;;;;;;12.80;11.60;;;;;;;8.06;65.88;96595.75;5073867;28;20036;-77
2021/04/22 03:53:41;;;;;;;15.30;13.82;;;;;;;8.05;65.96;96592.34;5073488;28;20044;-77
2021/04/22 03:56:09;;;;;;;18.98;16.92;;;;;;;8.03;66.24;96598.78;5073377;28;20037;-77
2021/04/22 03:58:37;;;;;;;19.80;17.90;;;;;;;7.97;66.35;96589.13;5073332;28;20037;-77
2021/04/22 04:01:05;;;;;;;21.70;19.60;;;;;;;7.95;66.62;96596.34;5073793;28;20036;-77
2021/04/22 04:03:32;;;;;;;21.88;19.38;;;;;;;7.89;66.74;96595.31;5072902;28;20044;-77
2021/04/22 04:06:00;;;;;;;21.13;19.08;;;;;;;7.85;67.06;96607.97;5072996;28;20048;-77
2021/04/22 04:08:28;;;;;;;21.70;19.58;;;;;;;7.81;67.11;96608.53;5071414;28;20045;-77
2021/04/22 04:10:55;;;;;;;21.38;19.30;;;;;;;7.77;67.31;96608.16;5073343;28;20044;-77
2021/04/22 04:13:23;;;;;;;21.67;18.95;;;;;;;7.71;67.68;96608.94;5072883;28;20041;-77
2021/04/22 04:15:51;;;;;;;20.75;18.60;;;;;;;7.68;67.76;96610.09;5073527;28;20032;-78
2021/04/22 04:18:20;;;;;;;22.70;20.40;;;;;;;7.66;68.22;96621.75;5058224;28;20043;-77
2021/04/22 04:20:49;;;;;;;20.63;18.50;;;;;;;7.64;68.33;96614.13;5073267;28;20028;-77
2021/04/22 04:23:16;;;;;;;20.25;18.17;;;;;;;7.63;68.31;96616.94;5072808;28;20028;-77
2021/04/22 04:25:44;;;;;;;21.20;18.95;;;;;;;7.63;68.40;96620.34;5073306;28;20053;-77
2021/04/22 04:28:11;;;;;;;20.92;18.92;;;;;;;7.62;68.73;96610.09;5073038;28;20036;-77
2021/04/22 04:30:37;;;;;;;21.75;19.45;;;;;;;7.63;68.75;96622.94;5071737;28;20052;-77
2021/04/22 04:33:04;;;;;;;21.20;19.20;;;;;;;7.62;68.91;96618.75;5072681;28;20044;-77
2021/04/22 04:35:32;;;;;;;23.90;18.90;;;;;;;7.62;69.23;96629.19;5072819;28;20534;-77
2021/04/22 04:38:02;;;;;;;21.30;19.05;;;;;;;7.60;69.29;96635.56;5072314;28;20060;-77
2021/04/22 04:40:30;;;;;;;22.88;20.50;;;;;;;7.57;69.51;96633.34;5071431;28;20500;-77
2021/04/22 04:42:58;;;;;;;23.10;20.90;;;;;;;7.55;69.96;96640.59;5071933;28;20028;-77
2021/04/22 04:45:26;;;;;;;24.42;21.27;;;;;;;7.53;69.90;96641.56;5073266;28;20400;-77
2021/04/22 04:47:54;;;;;;;23.67;21.25;;;;;;;7.52;70.61;96650.41;5070750;28;20476;-77
2021/04/22 04:50:22;;;;;;;24.00;21.42;;;;;;;7.49;70.59;96647.38;5071798;28;20479;-77
2021/04/22 04:52:50;;;;;;;24.02;21.60;;;;;;;7.46;70.76;96651.19;5073417;28;20386;-77
2021/04/22 04:55:18;;;;;;;24.13;21.67;;;;;;;7.43;71.15;96658.56;5072673;28;20064;-77
2021/04/22 04:57:46;;;;;;;22.90;20.60;;;;;;;7.41;71.46;96664.00;5072785;28;20488;-77
2021/04/22 05:00:15;;;;;;;24.15;21.63;;;;;;;7.40;71.58;96672.81;5072597;28;20048;-77
2021/04/22 05:02:41;;;;;;;22.60;20.27;;;;;;;7.41;71.34;96678.84;5072933;28;20047;-78
2021/04/22 05:05:08;;;;;;;22.13;19.98;;;;;;;7.42;71.69;96672.63;5072740;28;20037;-77
2021/04/22 05:07:36;;;;;;;22.52;20.20;;;;;;;7.44;71.80;96678.47;5073116;28;20043;-77
2021/04/22 05:10:06;;;;;;;23.58;21.17;;;;;;;7.45;72.31;96672.22;5071415;28;20036;-77
2021/04/22 05:12:32;;;;;;;21.38;19.10;;;;;;;7.44;72.08;96683.69;5071458;28;20393;-78
2021/04/22 05:14:58;;;;;;;23.58;21.17;;;;;;;7.43;72.72;96689.88;5071452;28;20047;-76
2021/04/22 05:17:24;;;;;;;24.15;21.67;;;;;;;7.40;73.13;96696.28;5072713;28;20043;-76
2021/04/22 05:19:51;;;;;;;24.10;21.70;;;;;;;7.37;73.26;96693.25;5072922;28;20393;-76
2021/04/22 05:22:17;;;;;;;24.08;21.63;;;;;;;7.32;73.36;96689.41;5072341;28;20033;-76
2021/04/22 05:24:43;;;;;;;23.55;21.27;;;;;;;7.31;73.61;96693.03;5072468;28;20044;-76
2021/04/22 05:27:09;;;;;;;23.08;20.65;;;;;;;7.31;74.03;96694.84;5072770;28;20481;-76
2021/04/22 05:29:36;;;;;;;24.15;21.35;;;;;;;7.33;74.14;96698.06;5072523;28;20485;-76
2021/04/22 05:32:03;;;;;;;23.23;20.75;;;;;;;7.36;74.71;96704.69;5071130;28;20056;-77
2021/04/22 05:34:30;;;;;;;23.50;21.13;;;;;;;7.37;74.43;96699.31;5073294;28;20048;-77
2021/04/22 05:36:56;;;;;;;22.08;19.92;;;;;;;7.44;74.60;96707.97;5076303;28;20060;-77
2021/04/22 05:39:22;;;;;;;22.75;19.98;;;;;;;7.51;74.79;96710.59;5058767;28;20047;-77
2021/04/22 05:41:49;;;;;;;22.77;20.38;;;;;;;7.57;74.53;96714.25;5076307;28;20055;-77
2021/04/22 05:44:16;;;;;;;23.75;19.48;;;;;;;7.59;74.66;96715.69;5074967;28;20028;-77
2021/04/22 05:46:43;;;;;;;20.05;18.05;;;;;;;7.65;74.75;96717.53;5074712;28;20469;-77
2021/04/22 05:49:10;;;;;;;21.50;19.50;;;;;;;7.69;74.59;96715.34;5076391;28;20048;-77
2021/04/22 05:51:38;;;;;;;21.52;19.25;;;;;;;7.77;74.88;96725.63;5075190;28;20052;-77
2021/04/22 05:54:06;;;;;;;21.02;18.88;;;;;;;7.84;74.82;96730.88;5075886;28;20037;-77
2021/04/22 05:56:32;;;;;;;21.88;19.30;;;;;;;7.95;74.94;96738.16;5075813;28;20028;-77
2021/04/22 05:58:59;;;;;;;20.88;18.80;;;;;;;8.08;74.80;96737.41;5076027;28;20052;-77
2021/04/22 06:01:25;;;;;;;20.88;18.77;;;;;;;8.25;74.93;96741.31;5075079;28;20400;-77
2021/04/22 06:03:51;;;;;;;19.00;17.02;;;;;;;8.41;74.59;96740.19;5075984;28;20067;-78
2021/04/22 06:06:18;;;;;;;18.42;16.38;;;;;;;8.49;74.15;96740.00;5075003;28;20457;-77
2021/04/22 06:08:46;;;;;;;18.48;16.70;;;;;;;8.57;74.34;96754.72;5075583;28;20481;-77
2021/04/22 06:11:12;;;;;;;19.83;17.92;;;;;;;8.62;74.14;96757.53;5075689;28;20066;-77
2021/04/22 06:13:38;;;;;;;18.00;16.30;;;;;;;8.66;73.88;96763.16;5075729;28;20037;-77
2021/04/22 06:16:05;;;;;;;17.63;15.77;;;;;;;8.68;73.76;96761.16;5075820;28;20045;-77
2021/04/22 06:18:32;;;;;;;18.45;16.55;;;;;;;8.71;73.75;96764.19;5074872;28;20110;-77
2021/04/22 06:20:58;;;;;;;16.65;15.05;;;;;;;8.72;73.54;96768.41;5075528;28;20032;-77
2021/04/22 06:23:25;;;;;;;18.05;16.38;;;;;;;8.72;73.48;96763.19;5074298;28;20036;-77
2021/04/22 06:25:55;;;;;;;16.98;15.32;;;;;;;8.74;73.20;96763.78;5073642;28;20044;-77
2021/04/22 06:28:22;;;;;;;20.48;16.88;;;;;;;8.81;73.31;96769.03;5075331;28;20052;-77
2021/04/22 06:30:49;;;;;;;17.85;16.00;;;;;;;8.82;73.22;96773.28;5073894;28;20427;-78
2021/04/22 06:33:16;;;;;;;17.88;16.17;;;;;;;8.85;73.16;96772.84;5075693;28;20052;-77
2021/04/22 06:35:42;;;;;;;17.67;15.95;;;;;;;8.91;73.01;96779.13;5075641;28;20045;-77
2021/04/22 06:38:09;;;;;;;17.42;15.82;;;;;;;8.91;72.83;96773.88;5075208;28;20033;-78
2021/04/22 06:40:35;;;;;;;18.05;16.25;;;;;;;8.88;72.79;96777.72;5075132;28;20032;-79
2021/04/22 06:43:02;;;;;;;17.73;16.02;;;;;;;8.82;72.36;96781.13;5059294;28;20460;-77
2021/04/22 06:45:28;;;;;;;18.27;16.38;;;;;;;8.80;72.52;96787.53;5073679;28;20032;-77
2021/04/22 06:47:54;;;;;;;17.88;16.10;;;;;;;8.82;72.64;96786.34;5074286;28;20048;-77
2021/04/22 06:50:25;;;;;;;18.40;15.07;;;;;;;8.84;72.20;96793.97;5075112;28;20044;-77
2021/04/22 06:52:52;;;;;;;17.77;15.52;;;;;;;8.90;72.29;96788.78;5073773;28;20039;-78
2021/04/22 06:55:21;;;;;;;16.77;15.18;;;;;;;9.18;72.15;96793.03;5074870;28;20035;-77
2021/04/22 06:57:48;;;;;;;16.73;15.15;;;;;;;9.30;71.58;96804.53;5073248;28;20385;-78
2021/04/22 07:00:19;;;;;;;16.65;14.68;;;;;;;9.42;71.04;96812.56;5074705;28;20492;-77
2021/04/22 07:02:47;;;;;;;16.70;14.90;;;;;;;9.61;70.91;96810.94;5074054;28;20044;-77
2021/04/22 07:05:13;;;;;;;16.60;15.00;;;;;;;9.71;70.49;96816.59;5074659;28;20405;-78
2021/04/22 07:07:40;;;;;;;17.55;15.82;;;;;;;9.65;69.92;96820.00;5073228;28;20114;-78
2021/04/22 07:10:08;;;;;;;16.52;14.98;;;;;;;9.50;69.89;96828.06;5074831;28;20481;-78
2021/04/22 07:12:36;;;;;;;18.83;16.38;;;;;;;9.41;69.84;96824.06;5074203;28;20048;-77
2021/04/22 07:15:04;;;;;;;17.67;15.90;;;;;;;9.34;69.77;96826.69;5074834;28;20036;-77
2021/04/22 07:17:30;;;;;;;16.92;15.23;;;;;;;9.33;70.06;96834.72;5073893;28;20272;-77
2021/04/22 07:19:57;;;;;;;17.23;15.57;;;;;;;9.34;70.08;96836.31;5073323;28;20048;-77
2021/04/22 07:22:25;;;;;;;18.10;16.20;;;;;;;9.35;70.06;96832.72;5074215;28;20499;-78
2021/04/22 07:24:55;;;;;;;18.10;16.17;;;;;;;9.34;69.50;96838.94;5073240;28;20111;-77
2021/04/22 07:27:22;;;;;;;17.40;15.68;;;;;;;9.40;69.73;96839.97;5072741;28;20477;-78
2021/04/22 07:29:49;;;;;;;16.58;14.68;;;;;;;9.42;69.54;96843.19;5072792;28;20392;-78
2021/04/22 07:32:16;;;;;;;16.52;14.82;;;;;;;9.49;69.58;96841.34;5073703;28;20060;-78
2021/04/22 07:34:46;;;;;;;16.50;14.90;;;;;;;9.70;69.66;96842.97;5072691;28;20052;-77
2021/04/22 07:37:13;;;;;;;16.58;14.88;;;;;;;9.88;69.23;96837.94;5072632;28;20063;-78
2021/04/22 07:39:39;;;;;;;16.83;14.88;;;;;;;9.93;68.85;96848.63;5074379;28;20462;-77
2021/04/22 07:42:06;;;;;;;16.77;15.15;;;;;;;10.02;68.88;96848.41;5073691;28;20048;-78
2021/04/22 07:44:33;;;;;;;16.55;14.82;;;;;;;10.16;68.33;96845.56;5073766;28;20033;-77
2021/04/22 07:46:59;;;;;;;16.00;14.32;;;;;;;10.40;67.84;96845.13;5074054;28;20045;-77
2021/04/22 07:49:26;;;;;;;17.33;14.90;;;;;;;10.57;67.42;96851.50;5055878;28;20040;-78
2021/04/22 07:51:52;;;;;;;15.93;14.40;;;;;;;10.61;66.79;96852.72;5073490;28;20053;-78
2021/04/22 07:54:18;;;;;;;14.07;12.68;;;;;;;10.64;66.52;96862.78;5056430;28;20040;-77
2021/04/22 07:56:45;;;;;;;15.23;13.63;;;;;;;10.75;66.11;96854.25;5072917;28;20041;-77
2021/04/22 07:59:11;;;;;;;14.70;13.25;;;;;;;10.89;65.74;96860.25;5072436;28;20484;-78
2021/04/22 08:01:37;;;;;;;17.23;12.90;;;;;;;10.92;65.29;96859.84;5073403;28;20048;-77
2021/04/22 08:04:05;;;;;;;15.55;13.77;;;;;;;10.81;64.69;96868.34;5073528;28;20048;-77
2021/04/22 08:06:33;;;;;;;16.20;14.60;;;;;;;10.71;64.54;96870.63;5072742;28;20037;-78
2021/04/22 08:09:00;;;;;;;15.65;14.15;;;;;;;10.65;64.57;96867.03;5073297;28;20036;-78
2021/04/22 08:11:28;;;;;;;14.43;13.13;;;;;;;10.60;64.26;96866.03;5072209;28;20099;-77
2021/04/22 08:13:54;;;;;;;14.55;13.15;;;;;;;10.69;64.26;96862.97;5073415;28;20464;-78
2021/04/22 08:16:20;;;;;;;15.10;12.80;;;;;;;10.80;63.89;96866.75;5072099;28;20028;-77
2021/04/22 08:18:47;;;;;;;14.90;13.50;;;;;;;11.05;63.83;96872.09;5073064;28;20190;-77
2021/04/22 08:21:13;;;;;;;13.65;12.27;;;;;;;11.27;63.31;96872.56;5073729;28;20468;-77
2021/04/22 08:23:40;;;;;;;13.52;12.23;;;;;;;11.46;62.56;96875.25;5072654;28;20056;-77
2021/04/22 08:26:09;;;;;;;13.20;11.90;;;;;;;11.63;61.75;96871.09;5073608;28;20037;-78
2021/04/22 08:28:37;;;;;;;13.93;11.95;;;;;;;11.70;61.42;96863.19;5073064;28;20044;-77
2021/04/22 08:31:12;;;;;;;14.32;12.30;;;;;;;11.84;59.42;96864.66;5071749;28;20428;-78
2021/04/22 08:33:40;;;;;;;13.52;12.02;;;;;;;11.82;60.58;96876.41;5072400;28;20063;-77
2021/04/22 08:36:08;;;;;;;12.73;11.48;;;;;;;11.70;60.38;96881.56;5071938;28;20040;-78
2021/04/22 08:38:35;;;;;;;12.20;11.00;;;;;;;11.54;60.37;96877.63;5073022;28;20032;-77
2021/04/22 08:41:03;;;;;;;12.07;10.98;;;;;;;11.36;60.01;96878.38;5073339;28;20485;-77
2021/04/22 08:43:29;;;;;;;13.13;11.82;;;;;;;11.08;59.92;96883.97;5072881;28;20040;-78
2021/04/22 08:45:55;;;;;;;12.55;11.27;;;;;;;10.93;60.32;96894.75;5071777;28;20041;-78
2021/04/22 08:48:22;;;;;;;13.60;11.00;;;;;;;10.82;60.60;96895.41;5071539;28;20037;-78
2021/04/22 08:50:51;;;;;;;12.95;11.65;;;;;;;10.76;60.38;96892.59;5072645;28;20044;-77
2021/04/22 08:53:24;;;;;;;12.38;11.25;;;;;;;10.75;59.98;96908.53;5072422;28;20040;-77
2021/04/22 08:55:51;;;;;;;13.38;12.02;;;;;;;10.75;60.42;96905.91;5072828;28;20032;-77
2021/04/22 08:58:18;;;;;;;14.43;11.40;;;;;;;10.75;60.40;96911.97;5071480;28;20041;-77
2021/04/22 09:00:51;;;;;;;12.82;11.35;;;;;;;10.69;59.79;96906.75;5073716;28;20385;-77
2021/04/22 09:03:18;;;;;;;12.27;10.98;;;;;;;10.63;60.26;96908.38;5072014;28;20473;-77
2021/04/22 09:05:46;;;;;;;14.02;10.63;;;;;;;10.61;60.27;96913.03;5072883;28;20465;-77
2021/04/22 09:08:13;;;;;;;12.35;10.65;;;;;;;10.66;60.37;96918.44;5074174;28;20044;-78
2021/04/22 09:10:40;;;;;;;13.55;11.13;;;;;;;10.75;60.35;96917.22;5075561;28;20036;-78
2021/04/22 09:13:10;;;;;;;12.90;11.60;;;;;;;10.79;59.82;96917.59;5076601;28;20499;-78
2021/04/22 09:15:39;;;;;;;14.23;11.52;;;;;;;10.79;59.91;96922.03;5076948;28;20040;-78
2021/04/22 09:18:11;;;;;;;11.75;10.18;;;;;;;10.88;59.93;96926.06;5076602;28;20486;-77
2021/04/22 09:20:41;;;;;;;13.57;12.18;;;;;;;10.90;59.35;96924.84;5076300;28;20056;-77
2021/04/22 09:23:17;;;;;;;12.73;11.40;;;;;;;10.83;59.33;96916.16;5076359;28;20032;-78
2021/04/22 09:25:44;;;;;;;12.73;11.52;;;;;;;10.93;59.57;96911.28;5076661;28;20480;-77
2021/04/22 09:28:11;;;;;;;11.48;10.48;;;;;;;11.10;59.45;96919.50;5076524;28;20045;-77
2021/04/22 09:30:44;;;;;;;11.52;10.43;;;;;;;11.28;58.89;96915.38;5074226;28;20052;-78
2021/04/22 09:33:26;;;;;;;13.98;11.00;;;;;;;11.42;57.49;96906.38;5076152;28;20056;-77
2021/04/22 09:36:14;;;;;;;12.52;10.27;;;;;;;11.46;57.85;96914.66;5075138;28;20052;-77
2021/04/22 09:38:52;;;;;;;11.00;9.90;;;;;;;11.43;58.19;96928.22;5076409;28;20043;-77
2021/04/22 09:41:19;;;;;;;10.73;9.68;;;;;;;11.40;58.20;96926.81;5076639;28;20036;-77
2021/04/22 09:43:45;;;;;;;11.73;10.63;;;;;;;11.40;57.91;96926.81;5074992;28;20037;-78
2021/04/22 09:46:20;;;;;;;11.43;10.38;;;;;;;11.43;56.94;96918.53;5076114;28;20045;-76
2021/04/22 09:48:47;;;;;;;10.73;9.63;;;;;;;11.35;57.68;96924.03;5074576;28;20055;-77
2021/04/22 09:51:30;;;;;;;11.88;10.07;;;;;;;11.21;56.87;96925.09;5075671;28;20037;-77
2021/04/22 09:54:22;;;;;;;10.88;9.77;;;;;;;11.11;57.34;96926.38;5075507;28;20052;-77
2021/04/22 09:56:55;;;;;;;10.93;9.80;;;;;;;10.94;57.63;96935.72;5067789;28;20393;-77
2021/04/22 09:59:23;;;;;;;11.57;9.50;;;;;;;10.91;57.86;96938.75;5075473;28;20043;-77
2021/04/22 10:02:03;;;;;;;10.75;9.00;;;;;;;11.03;57.79;96941.56;5075788;28;20040;-77
2021/04/22 10:04:41;;;;;;;10.88;8.88;;;;;;;11.18;57.44;96932.38;5075735;28;20033;-77
2021/04/22 10:07:28;;;;;;;11.13;9.95;;;;;;;11.21;56.92;96927.72;5075721;28;20041;-77
2021/04/22 10:09:58;;;;;;;10.02;8.88;;;;;;;11.35;57.25;96929.28;5069631;28;20032;-77
2021/04/22 10:12:24;;;;;;;12.90;9.70;;;;;;;11.45;57.22;96934.06;5075680;28;20059;-77
2021/04/22 10:14:51;;;;;;;10.38;8.40;;;;;;;11.49;56.99;96933.44;5075770;28;20033;-77
2021/04/22 10:17:22;;;;;;;10.68;8.98;;;;;;;11.57;56.78;96935.81;5075396;28;20503;-77
2021/04/22 10:20:12;;;;;;;9.52;8.02;;;;;;;11.60;56.19;96934.56;5075561;28;20036;-77
2021/04/22 10:22:42;;;;;;;12.05;8.90;;;;;;;11.57;56.48;96935.81;5061683;28;20044;-77
2021/04/22 10:25:16;;;;;;;12.25;9.07;;;;;;;11.60;56.45;96936.41;5075292;28;20040;-77
2021/04/22 10:27:43;;;;;;;9.45;8.45;;;;;;;11.70;56.39;96934.13;5074839;28;20040;-78
2021/04/22 10:30:13;;;;;;;9.27;8.05;;;;;;;11.74;55.93;96927.44;5074960;28;20057;-77
2021/04/22 10:32:41;;;;;;;10.82;8.88;;;;;;;11.97;56.37;96927.69;5075790;28;20044;-77
2021/04/22 10:35:13;;;;;;;10.45;9.10;;;;;;;12.17;55.08;96918.81;5073863;28;20051;-77
2021/04/22 10:37:41;;;;;;;11.25;9.02;;;;;;;12.53;55.33;96914.63;5074901;28;20048;-77
2021/04/22 10:40:11;;;;;;;10.63;8.30;;;;;;;12.96;54.46;96906.66;5074943;28;20033;-77
2021/04/22 10:42:38;;;;;;;9.10;8.20;;;;;;;13.29;54.01;96904.63;5057157;28;20044;-77
2021/04/22 10:45:08;;;;;;;9.13;8.20;;;;;;;13.54;52.35;96886.88;5074764;28;20036;-77
2021/04/22 10:47:35;;;;;;;10.43;8.35;;;;;;;13.85;52.62;96887.59;5075048;28;20491;-77
2021/04/22 10:50:03;;;;;;;9.35;7.53;;;;;;;14.26;52.14;96877.97;5074760;28;20040;-77
2021/04/22 10:52:30;;;;;;;8.85;8.07;;;;;;;14.32;50.61;96855.13;5074881;28;20032;-77
2021/04/22 10:54:56;;;;;;;8.50;7.60;;;;;;;14.22;50.03;96850.47;5073241;28;20063;-76
2021/04/22 10:57:23;;;;;;;8.82;7.97;;;;;;;14.35;50.11;96842.28;5074580;28;20449;-77
2021/04/22 11:00:13;;;;;;;7.70;7.00;;;;;;;14.39;47.41;96814.41;5074415;28;20040;-77
2021/04/22 11:02:41;;;;;;;10.40;7.55;;;;;;;14.63;49.09;96839.97;5074198;28;20492;-77
2021/04/22 11:05:20;;;;;;;7.78;6.90;;;;;;;15.00;45.05;96782.31;5074455;28;20037;-77
2021/04/22 11:08:06;;;;;;;7.97;6.78;;;;;;;15.35;45.53;96783.94;5074329;28;20028;-77
2021/04/22 11:10:39;;;;;;;8.82;7.07;;;;;;;15.58;44.81;96781.16;5074464;28;20041;-77
2021/04/22 11:13:17;;;;;;;9.15;7.90;;;;;;;15.63;45.17;96783.06;5073916;28;20044;-77
2021/04/22 11:15:59;;;;;;;8.15;7.32;;;;;;;15.55;45.35;96778.97;5074467;28;20036;-77
2021/04/22 11:18:39;;;;;;;7.43;6.82;;;;;;;15.57;45.07;96781.38;5073589;28;20472;-77
2021/04/22 11:21:20;;;;;;;7.72;6.93;;;;;;;15.85;43.53;96759.34;5074280;28;20389;-77
2021/04/22 11:23:47;;;;;;;7.85;6.57;;;;;;;15.71;44.78;96773.94;5073828;28;20047;-77
2021/04/22 11:26:21;;;;;;;7.60;6.70;;;;;;;15.27;43.67;96787.78;5072720;28;20416;-77
2021/04/22 11:28:48;;;;;;;8.02;7.32;;;;;;;15.29;44.80;96791.00;5074423;28;20047;-77
2021/04/22 11:31:18;;;;;;;9.07;7.28;;;;;;;15.40;44.75;96789.31;5072502;28;20048;-77
2021/04/22 11:33:45;;;;;;;7.50;6.80;;;;;;;15.41;44.49;96775.88;5074145;28;20031;-77